Time;durP1;ratioP1;P1;durP2;ratioP2;P2;SDS_P1;SDS_P2;PMS_P1;PMS_P2;Temp;Humidity;BMP_temperature;BMP_pressure;BME280_temperature;BME280_humidity;BME280_pressure;Samples;Min_cycle;Max_cycle;Signal;HPM_P1;HPM_P2
2022/04/06 00:02:25;;;;;;;9.00;5.50;;;;;;;8.18;41.42;100863.72;5010340;28;20049;-83
2022/04/06 00:04:50;;;;;;;8.82;5.10;;;;;;;8.09;42.24;100833.09;4994016;28;20084;-83
2022/04/06 00:07:15;;;;;;;8.55;5.10;;;;;;;8.04;42.49;100847.88;4994039;28;20022;-83
2022/04/06 00:09:41;;;;;;;9.77;5.47;;;;;;;8.12;41.71;100850.19;4994088;28;20029;-83
2022/04/06 00:12:08;;;;;;;12.45;5.97;;;;;;;8.10;42.50;100865.69;5010360;28;20032;-83
2022/04/06 00:14:34;;;;;;;10.50;5.97;;;;;;;7.87;42.79;100830.44;4977905;28;20554;-83
2022/04/06 00:17:04;;;;;;;9.77;6.15;;;;;;;8.00;42.33;100861.75;4993856;28;20025;-83
2022/04/06 00:19:30;;;;;;;12.27;6.65;;;;;;;7.67;42.60;100836.28;4978907;28;20034;-83
2022/04/06 00:21:56;;;;;;;10.70;5.93;;;;;;;7.76;43.00;100853.13;5010259;28;20037;-83
2022/04/06 00:24:21;;;;;;;12.68;6.63;;;;;;;7.88;42.61;100869.91;5010548;28;20037;-83
2022/04/06 00:26:47;;;;;;;12.90;7.05;;;;;;;7.72;42.93;100848.97;4993799;28;20032;-83
2022/04/06 00:29:12;;;;;;;12.38;7.30;;;;;;;7.78;42.89;100860.81;4993684;28;20065;-83
2022/04/06 00:31:38;;;;;;;12.57;6.95;;;;;;;7.65;43.03;100853.47;5009963;28;20522;-83
2022/04/06 00:34:03;;;;;;;13.45;7.47;;;;;;;7.64;43.02;100853.53;5009874;28;20033;-83
2022/04/06 00:36:29;;;;;;;14.60;8.38;;;;;;;7.68;42.39;100847.41;4993670;28;20029;-83
2022/04/06 00:38:55;;;;;;;15.95;8.50;;;;;;;7.63;42.73;100841.56;4993625;28;20022;-83
2022/04/06 00:41:21;;;;;;;13.38;8.43;;;;;;;7.74;44.58;100870.38;4993667;28;20061;-83
2022/04/06 00:44:18;;;;;;;14.20;8.73;;;;;;;7.76;43.40;100877.13;4993751;28;20495;-83
2022/04/06 00:46:44;;;;;;;14.23;8.50;;;;;;;7.72;43.23;100883.28;5009699;28;20030;-83
2022/04/06 00:49:14;;;;;;;15.77;8.77;;;;;;;7.71;43.42;100881.63;4993773;28;20088;-83
2022/04/06 00:51:47;;;;;;;14.02;7.75;;;;;;;7.70;42.96;100877.34;4994142;28;20026;-83
2022/04/06 00:54:16;;;;;;;;;;;;;;;7.71;43.08;100880.78;4994100;28;20037;-83
2022/04/06 00:56:42;;;;;;;14.57;7.28;;;;;;;7.58;42.59;100870.03;5026312;28;19921;-83
2022/04/06 00:59:08;;;;;;;16.60;8.18;;;;;;;7.72;43.23;100879.88;5009510;28;20049;-83
2022/04/06 01:01:33;;;;;;;12.35;7.10;;;;;;;7.78;43.00;100876.28;4992980;28;20037;-83
2022/04/06 01:03:59;;;;;;;14.82;7.90;;;;;;;7.72;43.60;100878.16;4993571;28;20613;-83
2022/04/06 01:06:24;;;;;;;13.10;8.38;;;;;;;7.59;43.41;100861.44;4995554;28;20041;-83
2022/04/06 01:08:51;;;;;;;13.57;7.65;;;;;;;7.66;43.67;100868.03;4997519;28;20022;-83
2022/04/06 01:11:17;;;;;;;12.88;7.00;;;;;;;7.71;43.70;100870.47;4997621;28;20096;-83
2022/04/06 01:13:42;;;;;;;14.32;7.78;;;;;;;7.80;43.86;100879.63;4981144;28;20026;-83
2022/04/06 01:16:08;;;;;;;12.85;7.85;;;;;;;7.73;44.05;100874.69;4980745;28;20064;-83
2022/04/06 01:18:33;;;;;;;14.48;8.27;;;;;;;7.73;44.26;100886.72;5013569;28;20037;-83
2022/04/06 01:20:59;;;;;;;13.30;8.27;;;;;;;7.71;43.85;100876.47;4997378;28;20030;-83
2022/04/06 01:23:25;;;;;;;15.02;8.57;;;;;;;7.66;44.06;100882.66;5013985;28;20108;-83
2022/04/06 01:25:50;;;;;;;16.65;8.32;;;;;;;7.60;44.12;100875.13;4997298;28;20026;-83
2022/04/06 01:28:16;;;;;;;14.25;8.52;;;;;;;7.55;43.84;100875.28;4997121;28;20145;-83
2022/04/06 01:30:42;;;;;;;14.27;7.55;;;;;;;7.48;43.34;100860.94;5013196;28;20080;-83
2022/04/06 01:33:08;;;;;;;11.77;7.30;;;;;;;7.50;43.87;100869.44;4997102;28;20029;-83
2022/04/06 01:35:38;;;;;;;11.77;7.07;;;;;;;7.41;43.58;100868.00;5013327;28;20487;-83
2022/04/06 01:38:04;;;;;;;13.00;7.63;;;;;;;7.52;45.33;100879.69;4997477;28;20037;-83
2022/04/06 01:40:30;;;;;;;9.65;6.38;;;;;;;7.42;43.61;100863.69;5013192;28;20026;-83
2022/04/06 01:42:56;;;;;;;10.65;5.38;;;;;;;7.59;43.03;100884.59;5013593;28;20060;-83
2022/04/06 01:45:22;;;;;;;7.28;4.97;;;;;;;7.48;42.39;100879.78;5012579;28;20487;-83
2022/04/06 01:47:47;;;;;;;7.45;5.18;;;;;;;7.58;42.62;100869.19;4996832;28;20041;-83
2022/04/06 01:52:57;;;;;;;7.80;4.82;;;;;;;7.75;42.54;100884.91;5014010;28;20037;-83
2022/04/06 01:55:22;;;;;;;8.63;4.80;;;;;;;7.62;42.85;100881.06;4996736;28;20034;-84
2022/04/06 01:57:48;;;;;;;8.30;4.50;;;;;;;7.63;42.48;100890.47;5012980;28;20033;-83
2022/04/06 02:00:16;;;;;;;6.32;4.03;;;;;;;7.56;42.64;100896.72;5012121;28;20054;-83
2022/04/06 02:02:43;;;;;;;7.88;4.40;;;;;;;7.55;42.68;100890.72;4996464;28;20057;-83
2022/04/06 02:05:08;;;;;;;6.00;4.35;;;;;;;7.35;43.23;100865.63;5012638;28;20579;-83
2022/04/06 02:07:34;;;;;;;9.07;4.38;;;;;;;7.39;42.96;100882.66;4996353;28;20120;-83
2022/04/06 02:10:00;;;;;;;7.88;4.65;;;;;;;7.54;43.68;100908.78;4996417;28;20034;-83
2022/04/06 02:12:25;;;;;;;7.20;4.72;;;;;;;7.54;42.78;100894.19;4996754;28;20029;-83
2022/04/06 02:14:51;;;;;;;10.38;5.35;;;;;;;7.50;42.58;100879.75;4995649;28;20022;-83
2022/04/06 02:17:16;;;;;;;7.70;4.85;;;;;;;7.63;42.68;100901.63;5012221;28;20037;-83
2022/04/06 02:19:42;;;;;;;7.22;5.50;;;;;;;7.64;42.99;100900.72;4979951;28;20061;-83
2022/04/06 02:22:08;;;;;;;7.25;4.80;;;;;;;7.65;42.95;100897.25;5012206;28;20057;-83
2022/04/06 02:24:33;;;;;;;10.93;6.25;;;;;;;7.56;43.30;100882.09;5012503;28;20029;-83
2022/04/06 02:26:59;;;;;;;10.10;6.20;;;;;;;7.48;44.38;100889.25;4996121;28;20048;-83
2022/04/06 02:29:25;;;;;;;10.07;5.50;;;;;;;7.58;43.66;100900.94;5013288;28;20510;-83
2022/04/06 02:31:50;;;;;;;15.10;7.63;;;;;;;7.40;44.12;100886.91;5012301;28;20468;-83
2022/04/06 02:34:16;;;;;;;15.40;9.05;;;;;;;7.49;43.55;100901.22;4979654;28;20053;-83
2022/04/06 02:36:41;;;;;;;15.70;8.80;;;;;;;7.34;43.77;100871.66;5013296;28;20065;-83
2022/04/06 02:39:07;;;;;;;23.73;14.07;;;;;;;7.50;44.00;100900.34;5011932;28;20057;-83
2022/04/06 02:41:32;;;;;;;25.40;14.65;;;;;;;7.51;43.85;100903.75;4979687;28;20049;-83
2022/04/06 02:43:58;;;;;;;17.02;9.68;;;;;;;7.53;44.70;100905.38;5011825;28;20407;-83
2022/04/06 02:46:23;;;;;;;14.80;7.70;;;;;;;7.42;44.56;100899.72;5012128;28;20045;-83
2022/04/06 02:48:49;;;;;;;14.20;8.15;;;;;;;7.38;44.54;100899.00;4995475;28;20057;-83
2022/04/06 02:51:14;;;;;;;24.45;12.13;;;;;;;7.48;44.46;100899.56;5012230;28;20499;-83
2022/04/06 02:53:40;;;;;;;24.35;12.35;;;;;;;7.33;45.47;100903.44;4995343;28;20084;-83
2022/04/06 02:56:05;;;;;;;14.25;7.90;;;;;;;7.31;45.79;100901.81;4995760;28;20038;-83
2022/04/06 02:58:31;;;;;;;13.25;7.07;;;;;;;7.26;46.18;100909.66;4978937;28;20514;-83
2022/04/06 03:00:58;;;;;;;11.50;6.00;;;;;;;7.23;46.67;100914.06;5011738;28;20419;-82
2022/04/06 03:03:23;;;;;;;11.35;6.32;;;;;;;7.17;48.31;100909.94;5011485;28;20022;-83
2022/04/06 03:05:49;;;;;;;11.57;6.72;;;;;;;7.13;49.36;100924.63;4979169;28;20041;-82
2022/04/06 03:08:15;;;;;;;10.95;6.38;;;;;;;7.04;50.05;100917.19;4979079;28;20026;-82
2022/04/06 03:10:40;;;;;;;10.48;5.80;;;;;;;7.02;50.68;100913.81;4995141;28;20057;-82
2022/04/06 03:13:06;;;;;;;9.55;6.13;;;;;;;6.89;51.13;100904.78;4995289;28;20036;-82
2022/04/06 03:15:31;;;;;;;19.50;7.43;;;;;;;6.89;50.05;100905.63;5011447;28;20096;-82
2022/04/06 03:17:57;;;;;;;16.88;9.60;;;;;;;6.94;48.30;100913.19;4979026;28;20030;-82
2022/04/06 03:20:22;;;;;;;14.45;9.85;;;;;;;7.06;47.43;100922.28;4992511;28;20029;-84
2022/04/06 03:22:48;;;;;;;12.30;6.68;;;;;;;9.96;46.07;100928.28;4978676;28;20026;-87
2022/04/06 03:25:13;;;;;;;12.02;7.18;;;;;;;11.67;39.84;100925.75;4994576;28;20038;-87
2022/04/06 03:27:39;;;;;;;10.57;6.90;;;;;;;11.80;38.07;100917.41;4993949;28;20084;-87
2022/04/06 03:30:06;;;;;;;9.60;6.38;;;;;;;11.02;37.94;100934.91;4994436;28;20030;-88
2022/04/06 03:32:31;;;;;;;11.35;6.43;;;;;;;10.34;39.41;100943.97;4978208;28;20026;-84
2022/04/06 03:34:57;;;;;;;12.23;7.00;;;;;;;9.47;40.56;100919.09;4994383;28;20034;-85
2022/04/06 03:37:23;;;;;;;9.02;5.90;;;;;;;9.12;40.73;100941.09;4994567;28;20044;-87
2022/04/06 03:39:48;;;;;;;9.65;6.43;;;;;;;8.79;41.14;100931.16;4994065;28;20076;-86
2022/04/06 03:42:14;;;;;;;11.73;6.00;;;;;;;8.51;41.30;100913.25;5010584;28;20041;-84
2022/04/06 03:44:39;;;;;;;14.68;8.00;;;;;;;8.25;42.42;100924.44;4993920;28;20030;-84
2022/04/06 03:47:05;;;;;;;14.80;8.85;;;;;;;8.01;43.03;100930.44;4994407;28;20125;-84
2022/04/06 03:49:31;;;;;;;8.63;5.88;;;;;;;7.91;43.15;100935.03;5010676;28;20444;-83
2022/04/06 03:51:57;;;;;;;9.45;5.80;;;;;;;7.62;44.33;100919.69;4994278;28;20033;-83
2022/04/06 03:54:22;;;;;;;10.82;6.05;;;;;;;7.38;44.48;100895.59;4993803;28;20026;-84
2022/04/06 03:56:48;;;;;;;9.50;6.68;;;;;;;7.55;44.82;100937.06;4993957;28;20471;-84
2022/04/06 03:59:13;;;;;;;13.75;8.02;;;;;;;7.48;45.49;100940.75;4994067;28;20049;-83
2022/04/06 04:01:39;;;;;;;13.85;8.07;;;;;;;7.24;45.80;100900.28;4977875;28;20037;-83
2022/04/06 04:04:04;;;;;;;17.05;10.15;;;;;;;7.43;46.00;100958.03;5010814;28;20076;-84
2022/04/06 04:06:31;;;;;;;12.60;7.30;;;;;;;7.15;46.31;100917.69;4991438;28;20037;-84
2022/04/06 04:08:56;;;;;;;12.50;7.00;;;;;;;7.31;46.11;100948.97;5008732;28;20088;-84
2022/04/06 04:11:22;;;;;;;12.20;6.97;;;;;;;7.21;45.90;100949.28;4977846;28;20117;-84
2022/04/06 04:13:48;;;;;;;21.83;14.80;;;;;;;7.18;45.95;100956.22;4993431;28;20104;-80
2022/04/06 04:16:13;;;;;;;19.15;12.05;;;;;;;7.02;45.95;100936.13;5011281;28;20022;-80
2022/04/06 04:18:41;;;;;;;12.35;6.82;;;;;;;7.25;45.54;100963.75;4992288;28;20045;-83
2022/04/06 04:23:50;;;;;;;8.70;5.63;;;;;;;7.37;45.09;100968.50;5010471;28;20088;-84
2022/04/06 04:26:16;;;;;;;9.57;6.18;;;;;;;7.31;45.53;100961.00;5009910;28;20026;-81
2022/04/06 04:28:41;;;;;;;14.10;7.30;;;;;;;7.36;45.51;100959.09;4977164;28;20107;-84
2022/04/06 04:31:07;;;;;;;12.05;6.40;;;;;;;7.19;45.76;100937.31;5006622;28;20439;-83
2022/04/06 04:33:32;;;;;;;12.02;7.25;;;;;;;7.32;46.01;100965.25;4997517;28;20034;-85
2022/04/06 04:35:58;;;;;;;31.02;14.13;;;;;;;7.41;46.43;100973.53;4973711;28;20030;-85
2022/04/06 04:38:23;;;;;;;87.32;32.88;;;;;;;7.39;48.03;100967.59;4957558;28;20038;-88
2022/04/06 04:40:49;;;;;;;102.68;39.65;;;;;;;7.42;49.23;100982.09;4973693;28;20025;-82
2022/04/06 04:43:15;;;;;;;63.83;26.38;;;;;;;7.34;49.98;100969.47;5005535;28;20037;-82
2022/04/06 04:45:40;;;;;;;29.15;15.93;;;;;;;7.39;50.98;100980.47;4989313;28;20031;-89
2022/04/06 04:48:06;;;;;;;20.55;13.60;;;;;;;7.42;51.09;100982.09;4974552;28;20026;-84
2022/04/06 04:50:31;;;;;;;27.70;12.60;;;;;;;7.40;51.17;100978.75;4989680;28;20026;-83
2022/04/06 04:52:57;;;;;;;22.98;14.20;;;;;;;7.49;51.41;101001.63;4989078;28;20037;-81
2022/04/06 04:55:23;;;;;;;26.38;14.73;;;;;;;7.47;51.45;101000.81;4990218;28;20053;-93
2022/04/06 04:57:48;;;;;;;20.92;14.60;;;;;;;7.38;50.72;100983.94;4986053;28;20457;-84
2022/04/06 05:00:15;;;;;;;25.05;14.57;;;;;;;7.67;50.14;101011.38;5006978;28;20038;-85
2022/04/06 05:02:40;;;;;;;18.35;10.60;;;;;;;7.75;49.60;101019.69;5001960;28;20030;-87
2022/04/06 05:05:07;;;;;;;16.90;8.93;;;;;;;7.76;48.44;101013.63;4995982;28;20022;-82
2022/04/06 05:07:37;;;;;;;13.35;8.10;;;;;;;7.79;47.23;101022.19;5009837;28;20084;-83
2022/04/06 05:10:05;;;;;;;11.73;7.75;;;;;;;7.87;47.37;101023.63;5012542;28;20032;-86
2022/04/06 05:12:30;;;;;;;14.05;8.60;;;;;;;8.01;47.65;101028.34;4996330;28;20033;-88
2022/04/06 05:14:56;;;;;;;12.23;7.82;;;;;;;8.09;47.20;101041.81;5028682;28;20407;-85
2022/04/06 05:17:21;;;;;;;13.95;8.02;;;;;;;8.22;46.90;101042.25;5027886;28;20022;-88
2022/04/06 05:19:47;;;;;;;12.07;7.63;;;;;;;8.34;46.03;101044.44;4993732;28;20435;-86
2022/04/06 05:22:12;;;;;;;13.95;7.43;;;;;;;8.25;45.69;101031.84;5001086;28;20105;-87
2022/04/06 05:24:38;;;;;;;16.13;7.97;;;;;;;8.14;45.80;101014.16;4981602;28;20874;-82
2022/04/06 05:27:04;;;;;;;16.48;9.52;;;;;;;8.32;46.14;101021.28;5005029;28;20026;-85
2022/04/06 05:29:29;;;;;;;14.52;10.13;;;;;;;8.41;45.87;101043.38;4993265;28;20407;-85
2022/04/06 05:31:55;;;;;;;15.02;10.48;;;;;;;8.42;45.64;101044.22;5003097;28;20579;-94
2022/04/06 05:34:20;;;;;;;15.65;10.38;;;;;;;8.51;46.52;101049.06;4976094;28;20033;-86
2022/04/06 05:36:46;;;;;;;15.93;9.80;;;;;;;8.87;54.25;101047.81;5009083;28;20117;-93
2022/04/06 05:39:12;;;;;;;16.10;9.60;;;;;;;10.40;47.44;101052.31;5000524;28;20527;-86
2022/04/06 05:41:38;;;;;;;15.70;10.23;;;;;;;10.19;45.99;101054.00;4994449;28;20038;-89
2022/04/06 05:44:04;;;;;;;15.73;10.30;;;;;;;9.98;44.57;101045.38;4982226;28;20038;-93
2022/04/06 05:46:30;;;;;;;19.60;9.65;;;;;;;9.87;44.61;101026.88;5015804;28;20036;-87
2022/04/06 05:48:55;;;;;;;17.73;9.18;;;;;;;9.86;43.85;101045.84;4996058;28;20033;-90
2022/04/06 05:51:22;;;;;;;25.13;15.02;;;;;;;9.86;43.87;101043.28;5000330;28;20091;-88
2022/04/06 05:53:47;;;;;;;19.15;11.40;;;;;;;9.76;44.75;101039.38;4995262;28;20511;-87
2022/04/06 05:56:13;;;;;;;19.60;10.13;;;;;;;9.82;43.65;101043.44;5019844;28;20032;-84
2022/04/06 05:58:38;;;;;;;18.17;10.95;;;;;;;9.89;44.15;101050.91;5013524;28;20046;-84
2022/04/06 06:01:04;;;;;;;20.55;10.00;;;;;;;9.84;43.86;101021.81;5024544;28;20073;-84
2022/04/06 06:03:29;;;;;;;15.82;9.90;;;;;;;10.09;44.18;101057.88;5002550;28;20030;-88
2022/04/06 06:05:55;;;;;;;17.13;10.82;;;;;;;10.00;43.69;101030.63;4987514;28;20045;-82
2022/04/06 06:08:21;;;;;;;15.57;10.15;;;;;;;10.30;42.99;101066.53;5007554;28;20028;-82
2022/04/06 06:10:46;;;;;;;20.23;11.82;;;;;;;10.34;42.89;101068.94;5005567;28;20025;-80
2022/04/06 06:13:12;;;;;;;29.05;20.38;;;;;;;10.14;42.45;101022.34;5023677;28;20038;-82
2022/04/06 06:15:37;;;;;;;19.42;11.82;;;;;;;10.52;43.22;101075.09;4995230;28;20034;-83
2022/04/06 06:18:03;;;;;;;15.07;10.95;;;;;;;10.38;44.07;101064.47;4989501;28;20034;-83
2022/04/06 06:20:29;;;;;;;12.63;8.75;;;;;;;10.45;44.36;101073.69;5010134;28;20069;-84
2022/04/06 06:22:54;;;;;;;13.20;9.30;;;;;;;10.44;44.56;101072.00;4988931;28;20042;-82
2022/04/06 06:25:20;;;;;;;13.05;7.88;;;;;;;10.18;44.90;101049.75;4992374;28;20066;-87
2022/04/06 06:27:46;;;;;;;19.30;11.48;;;;;;;10.41;44.39;101059.16;5001922;28;20034;-84
2022/04/06 06:30:12;;;;;;;12.07;8.65;;;;;;;10.63;43.99;101075.50;5027678;28;20029;-85
2022/04/06 06:32:38;;;;;;;12.98;7.90;;;;;;;10.47;44.19;101053.75;4994330;28;20088;-83
2022/04/06 06:35:05;;;;;;;14.20;8.00;;;;;;;10.80;43.39;101071.34;5000817;28;20030;-84
2022/04/06 06:37:31;;;;;;;12.50;7.72;;;;;;;10.83;43.46;101060.88;5017753;28;20132;-88
2022/04/06 06:39:56;;;;;;;15.27;8.20;;;;;;;10.91;43.47;101069.13;5005957;28;20037;-83
2022/04/06 06:42:22;;;;;;;13.65;8.18;;;;;;;10.99;43.62;101061.88;5013658;28;20026;-85
2022/04/06 06:44:47;;;;;;;15.40;8.70;;;;;;;11.19;43.07;101074.78;4994061;28;20061;-88
2022/04/06 06:47:16;;;;;;;19.00;12.95;;;;;;;11.27;42.57;101065.84;4997293;28;20033;-90
2022/04/06 06:49:46;;;;;;;18.30;9.02;;;;;;;11.25;42.65;101078.03;4980654;28;20105;-86
2022/04/06 06:52:15;;;;;;;14.27;8.35;;;;;;;11.41;42.38;101073.84;5007217;28;20018;-90
2022/04/06 06:54:40;;;;;;;16.77;9.88;;;;;;;11.57;42.14;101080.00;4999051;28;20163;-87
2022/04/06 06:57:06;;;;;;;15.75;9.18;;;;;;;11.50;41.19;101047.50;4988823;28;20055;-83
2022/04/06 06:59:31;;;;;;;15.38;9.73;;;;;;;11.59;40.97;101049.66;4995648;28;20061;-87
2022/04/06 07:01:57;;;;;;;16.98;11.63;;;;;;;11.77;40.89;101056.59;5030187;28;20115;-84
2022/04/06 07:04:22;;;;;;;13.85;9.77;;;;;;;11.91;39.91;101078.47;5028885;28;20380;-83
2022/04/06 07:06:49;;;;;;;14.10;9.23;;;;;;;12.11;40.91;101075.78;5011810;28;20060;-90
2022/04/06 07:09:15;;;;;;;13.50;9.45;;;;;;;12.19;40.07;101052.03;4989467;28;20078;-87
2022/04/06 07:11:41;;;;;;;17.00;9.98;;;;;;;12.30;40.09;101039.41;4994009;28;20435;-93
2022/04/06 07:14:07;;;;;;;16.05;9.85;;;;;;;12.67;39.35;101068.69;5009063;28;20034;-84
2022/04/06 07:16:32;;;;;;;13.52;9.00;;;;;;;12.71;38.19;101050.31;5008447;28;20076;-81
2022/04/06 07:18:58;;;;;;;14.55;9.07;;;;;;;12.98;38.14;101067.94;4990540;28;20030;-83
2022/04/06 07:21:23;;;;;;;13.25;8.70;;;;;;;13.11;38.24;101061.22;4981515;28;20030;-90
2022/04/06 07:23:49;;;;;;;15.43;9.15;;;;;;;13.21;37.99;101075.44;4955709;28;20037;-82
2022/04/06 07:26:16;;;;;;;15.20;8.93;;;;;;;13.22;37.55;101051.13;4972138;28;20133;-87
2022/04/06 07:28:44;;;;;;;14.75;9.02;;;;;;;13.34;37.46;101070.41;4972662;28;20479;-82
2022/04/06 07:31:13;;;;;;;15.68;9.30;;;;;;;13.53;37.47;101070.28;4999245;28;20073;-80
2022/04/06 07:33:40;;;;;;;15.70;9.27;;;;;;;13.70;37.29;101065.00;4994265;28;20054;-88
2022/04/06 07:36:06;;;;;;;13.45;8.90;;;;;;;13.81;36.81;101057.44;4997105;28;20026;-86
2022/04/06 07:38:31;;;;;;;16.38;9.15;;;;;;;14.14;36.54;101072.06;5009459;28;20511;-81
2022/04/06 07:40:57;;;;;;;14.50;8.63;;;;;;;14.27;36.72;101067.88;4992761;28;20026;-87
2022/04/06 07:43:23;;;;;;;13.68;7.82;;;;;;;14.39;35.98;101061.94;5018351;28;20088;-86
2022/04/06 07:45:49;;;;;;;11.60;7.68;;;;;;;14.69;35.81;101076.75;4992424;28;20026;-84
2022/04/06 07:48:14;;;;;;;16.75;8.07;;;;;;;14.76;35.17;101062.44;4990444;28;20022;-88
2022/04/06 07:50:40;;;;;;;12.35;7.35;;;;;;;14.85;35.24;101059.28;4990637;28;20029;-80
2022/04/06 07:53:05;;;;;;;10.20;6.18;;;;;;;15.06;34.25;101054.56;5008187;28;20026;-83
2022/04/06 07:55:31;;;;;;;14.05;7.50;;;;;;;15.20;34.15;101057.13;5016253;28;20100;-82
2022/04/06 07:57:56;;;;;;;12.23;7.70;;;;;;;15.38;34.52;101063.00;4990481;28;20237;-83
2022/04/06 08:00:22;;;;;;;16.33;8.13;;;;;;;15.47;34.50;101050.22;5004570;28;20475;-86
2022/04/06 08:02:48;;;;;;;11.27;7.50;;;;;;;15.69;34.29;101070.59;5021276;28;20050;-88
2022/04/06 08:05:14;;;;;;;12.85;7.82;;;;;;;15.89;33.43;101069.34;4976913;28;20037;-89
2022/04/06 08:07:42;;;;;;;9.70;6.65;;;;;;;15.89;32.92;101052.84;5000724;28;20108;-83
2022/04/06 08:10:08;;;;;;;10.93;6.50;;;;;;;16.15;33.00;101075.50;4992186;28;20049;-83
2022/04/06 08:12:35;;;;;;;13.75;8.68;;;;;;;16.28;32.92;101076.34;5008315;28;20026;-83
2022/04/06 08:15:01;;;;;;;21.58;13.40;;;;;;;16.33;34.39;101053.41;4992843;28;20040;-86
2022/04/06 08:17:30;;;;;;;12.07;8.07;;;;;;;16.44;32.61;101060.53;5009067;28;20029;-85
2022/04/06 08:19:55;;;;;;;15.18;8.02;;;;;;;16.66;32.20;101069.53;5009645;28;20065;-90
2022/04/06 08:22:24;;;;;;;12.18;7.30;;;;;;;16.58;31.71;101036.09;4990073;28;20054;-84
2022/04/06 08:24:49;;;;;;;11.75;7.28;;;;;;;16.86;32.32;101051.59;5008804;28;20057;-82
2022/04/06 08:27:15;;;;;;;11.85;7.10;;;;;;;17.17;31.39;101070.38;5009003;28;20165;-87
2022/04/06 08:29:40;;;;;;;12.45;7.43;;;;;;;17.18;31.78;101056.38;4990830;28;20022;-83
2022/04/06 08:32:06;;;;;;;16.38;8.50;;;;;;;17.45;33.16;101062.28;5024563;28;20391;-92
2022/04/06 08:34:31;;;;;;;13.00;6.78;;;;;;;17.43;31.05;101056.34;4990363;28;20045;-81
2022/04/06 08:36:57;;;;;;;9.50;6.60;;;;;;;17.55;30.19;101059.03;4979856;28;20038;-86
2022/04/06 08:39:22;;;;;;;11.23;8.18;;;;;;;17.74;30.82;101051.56;5002347;28;20407;-83
2022/04/06 08:41:48;;;;;;;9.40;6.07;;;;;;;18.01;31.08;101052.19;5003394;28;20058;-91
2022/04/06 08:44:23;;;;;;;10.35;7.35;;;;;;;18.19;29.42;101042.13;4978218;28;20025;-90
2022/04/06 08:46:50;;;;;;;9.45;6.50;;;;;;;18.32;30.19;101040.25;4972003;28;20038;-84
2022/04/06 08:49:15;;;;;;;10.70;6.20;;;;;;;18.41;29.29;101045.78;4972554;28;20108;-84
2022/04/06 08:51:41;;;;;;;8.30;6.10;;;;;;;18.33;30.00;101020.16;4973255;28;20662;-84
2022/04/06 08:54:06;;;;;;;7.97;5.00;;;;;;;18.66;30.00;101039.53;5007018;28;20048;-85
2022/04/06 08:56:32;;;;;;;7.00;5.20;;;;;;;18.70;30.22;101007.75;4989737;28;20030;-89
2022/04/06 08:59:00;;;;;;;6.88;5.32;;;;;;;19.01;29.45;101037.66;4989674;28;20072;-85
2022/04/06 09:01:27;;;;;;;8.43;6.28;;;;;;;19.18;28.47;101031.94;4994754;28;20397;-84
2022/04/06 09:03:52;;;;;;;9.85;7.18;;;;;;;19.20;28.65;101037.06;4987092;28;20069;-88
2022/04/06 09:06:18;;;;;;;11.65;7.30;;;;;;;19.25;29.09;101028.81;4974088;28;20121;-92
2022/04/06 09:08:45;;;;;;;11.82;6.90;;;;;;;19.47;28.87;101021.75;4981625;28;20768;-90
2022/04/06 09:11:11;;;;;;;10.30;5.95;;;;;;;19.61;29.57;101031.16;4995001;28;20023;-93
2022/04/06 09:13:38;;;;;;;13.38;6.88;;;;;;;19.64;29.03;101020.41;4970713;28;20052;-82
2022/04/06 09:16:04;;;;;;;15.05;9.68;;;;;;;19.95;28.79;101033.66;5005602;28;20509;-85
2022/04/06 09:18:44;;;;;;;9.55;6.10;;;;;;;20.13;28.90;101031.34;4990432;28;20034;-83
2022/04/06 09:21:14;;;;;;;11.75;6.10;;;;;;;20.06;29.18;101025.78;4996330;28;20121;-85
2022/04/06 09:23:39;;;;;;;9.60;5.70;;;;;;;20.11;27.58;101015.69;4991659;28;20655;-87
2022/04/06 09:26:06;;;;;;;7.75;4.90;;;;;;;20.31;28.12;101024.56;4986367;28;20453;-84
2022/04/06 09:28:32;;;;;;;12.90;6.30;;;;;;;20.25;28.84;101007.50;4976547;28;20033;-88
2022/04/06 09:30:58;;;;;;;8.55;5.20;;;;;;;20.19;28.15;100994.91;4979170;28;20048;-85
2022/04/06 09:33:26;;;;;;;7.80;5.30;;;;;;;20.27;28.81;100976.69;4994711;28;20288;-86
2022/04/06 09:35:52;;;;;;;9.75;5.95;;;;;;;20.65;28.02;100998.94;5002476;28;20034;-81
2022/04/06 09:38:31;;;;;;;8.80;5.03;;;;;;;20.68;27.11;100990.78;5007854;28;20498;-80
2022/04/06 09:41:05;;;;;;;11.15;4.82;;;;;;;20.82;28.36;100997.47;4988548;28;20052;-84
2022/04/06 09:43:32;;;;;;;5.18;4.22;;;;;;;20.80;27.35;100968.69;4991967;28;20084;-87
2022/04/06 09:49:09;;;;;;;8.85;7.30;;;;;;;21.09;27.80;100978.47;5008488;28;20459;-81
2022/04/06 09:51:38;;;;;;;6.57;5.20;;;;;;;21.08;27.25;100971.56;4995887;28;20037;-82
2022/04/06 09:54:04;;;;;;;5.88;4.32;;;;;;;21.26;26.69;100977.88;4989683;28;20033;-87
2022/04/06 09:56:30;;;;;;;7.20;4.75;;;;;;;21.20;26.55;100973.09;4994668;28;20037;-84
2022/04/06 09:58:56;;;;;;;8.38;6.13;;;;;;;21.36;26.92;100970.00;5000075;28;20088;-83
2022/04/06 10:01:22;;;;;;;5.20;3.75;;;;;;;21.55;26.79;100974.44;4994803;28;20030;-91
2022/04/06 10:03:53;;;;;;;5.50;3.70;;;;;;;21.58;26.99;100953.94;4981606;28;20034;-86
2022/04/06 10:06:18;;;;;;;4.68;3.63;;;;;;;21.46;26.14;100913.75;5002225;28;20026;-87
2022/04/06 10:08:44;;;;;;;5.97;3.22;;;;;;;21.95;26.25;100954.06;5009582;28;20025;-89
2022/04/06 10:11:10;;;;;;;6.15;3.50;;;;;;;22.10;28.16;100949.19;4991819;28;20113;-94
2022/04/06 10:13:36;;;;;;;7.22;6.07;;;;;;;22.21;26.66;100951.66;4977479;28;20088;-89
2022/04/06 10:16:01;;;;;;;4.30;3.17;;;;;;;22.25;25.78;100946.97;4979748;28;20026;-90
2022/04/06 10:18:27;;;;;;;5.78;3.20;;;;;;;21.95;26.11;100940.88;4996256;28;20129;-90
2022/04/06 10:21:19;;;;;;;6.35;3.40;;;;;;;22.19;25.99;100958.06;5008571;28;20454;-88
2022/04/06 10:23:54;;;;;;;4.43;3.30;;;;;;;22.49;25.45;100938.56;4999859;28;20043;-83
2022/04/06 10:26:19;;;;;;;6.35;3.28;;;;;;;22.25;26.07;100918.81;4991750;28;20033;-85
2022/04/06 10:28:47;;;;;;;5.97;3.20;;;;;;;22.40;26.21;100924.44;5015955;28;20082;-86
2022/04/06 10:31:20;;;;;;;3.45;2.72;;;;;;;22.46;25.49;100929.13;5000759;28;20022;-86
2022/04/06 10:33:46;;;;;;;6.15;2.90;;;;;;;22.27;25.58;100914.22;5000727;28;20069;-83
2022/04/06 10:36:29;;;;;;;4.85;3.05;;;;;;;22.21;25.73;100909.50;4970137;28;20450;-83
2022/04/06 10:39:04;;;;;;;6.57;2.72;;;;;;;22.44;25.50;100922.34;4989627;28;20064;-82
2022/04/06 10:41:30;;;;;;;4.38;2.80;;;;;;;22.56;25.61;100913.28;4995805;28;20128;-92
2022/04/06 10:43:56;;;;;;;11.82;10.63;;;;;;;22.53;25.62;100908.31;4988853;28;20033;-83
2022/04/06 10:46:38;;;;;;;9.95;8.07;;;;;;;22.51;26.14;100908.44;4986459;28;20840;-92
2022/04/06 10:49:07;;;;;;;;;;;;;;;22.78;25.77;100917.34;4988140;28;20513;-86
2022/04/06 10:51:37;;;;;;;10.63;6.10;;;;;;;22.71;24.74;100901.25;5009164;28;20397;-84
2022/04/06 10:54:12;;;;;;;5.90;2.55;;;;;;;22.71;25.31;100910.97;4985601;28;20033;-83
2022/04/06 10:56:49;;;;;;;3.97;2.40;;;;;;;22.80;24.82;100905.66;5020311;28;20448;-82
2022/04/06 10:59:24;;;;;;;6.03;3.47;;;;;;;22.82;24.70;100902.88;5008996;28;20054;-87
2022/04/06 11:02:17;;;;;;;3.17;2.35;;;;;;;22.92;24.76;100908.97;5007549;28;20030;-85
2022/04/06 11:04:42;;;;;;;8.68;7.40;;;;;;;22.85;24.79;100899.97;4997676;28;20045;-83
2022/04/06 11:07:08;;;;;;;5.00;2.95;;;;;;;22.84;25.43;100882.50;5003708;28;20037;-80
2022/04/06 11:12:28;;;;;;;5.30;2.95;;;;;;;23.25;24.40;100896.09;4987482;28;20040;-81
2022/04/06 11:15:00;;;;;;;4.50;2.83;;;;;;;23.23;25.37;100890.16;5007404;28;20064;-84
2022/04/06 11:17:38;;;;;;;4.85;2.60;;;;;;;23.30;25.08;100880.63;5006771;28;20034;-86
2022/04/06 11:20:06;;;;;;;3.10;2.60;;;;;;;23.31;24.45;100879.69;5010474;28;20033;-85
2022/04/06 11:22:32;;;;;;;6.32;5.00;;;;;;;23.36;24.90;100864.19;4992571;28;20030;-81
2022/04/06 11:24:59;;;;;;;5.07;3.50;;;;;;;23.43;24.94;100867.91;4999101;28;20117;-84
2022/04/06 11:27:34;;;;;;;6.72;2.50;;;;;;;23.44;23.85;100866.91;4990970;28;20026;-83
2022/04/06 11:30:02;;;;;;;4.85;2.40;;;;;;;23.38;24.04;100864.88;4999120;28;20104;-83
2022/04/06 11:32:28;;;;;;;2.85;2.25;;;;;;;23.27;23.94;100849.25;5010830;28;20034;-93